Northville, South Dakota
Current Conditions -  °F | °C
As of 6:25 PM on Sunday 23 Nov 2014 (Local Time) from KABR Reporting Station
Overcast Overcast  
Wind Chill:   Ceiling: 3500
Heat Index: 25°   Visibility: 10mi
Dew Point: 16°   Wind: 25mph
Humidity: 69%   Direction: 320°NW
Pressure: 29.62"   Gusts: 37mph
Location:  45.16°N, 98.58°W
Report Text: KABR 240025Z AUTO 32022G32KT 10SM SCT025 OVC035 M04/M09 A2962 RMK AO2 PK WND 34032/0014 T10391089
Loading
Personal Weather Stations






























Interactive Weather Map New forecast layout! Learn more

10-Day Weather Forecast

Advertisements
Track Severe Weather on mobile